createdAt,value
2019-03-13T00:01:03.628Z,65.10
2019-03-13T00:03:30.189Z,64.90
2019-03-13T00:05:56.610Z,63.60
2019-03-13T00:08:22.977Z,63.90
2019-03-13T00:10:49.597Z,63.80
2019-03-13T00:13:16.142Z,63.50
2019-03-13T00:15:42.804Z,63.90
2019-03-13T00:18:09.413Z,64.40
2019-03-13T00:20:35.949Z,62.40
2019-03-13T00:23:02.522Z,63.90
2019-03-13T00:25:28.877Z,64.70
2019-03-13T00:27:55.462Z,63.70
2019-03-13T00:30:22.755Z,63.80
2019-03-13T00:32:48.980Z,63.70
2019-03-13T00:35:15.332Z,65.20
2019-03-13T00:37:41.641Z,68.90
2019-03-13T00:40:10.866Z,74.90
2019-03-13T00:42:37.122Z,80.40
2019-03-13T00:45:05.987Z,83.70
2019-03-13T00:47:32.321Z,89.30
2019-03-13T00:49:58.693Z,93.30
2019-03-13T00:52:25.033Z,99.90
2019-03-13T00:54:51.624Z,99.90
2019-03-13T00:57:18.000Z,99.90
2019-03-13T00:59:44.343Z,99.90
2019-03-13T01:02:19.684Z,99.90
2019-03-13T01:04:50.695Z,99.90
2019-03-13T01:07:17.030Z,99.90
2019-03-13T01:09:44.215Z,99.90
2019-03-13T01:12:10.833Z,99.90
2019-03-13T01:14:37.193Z,99.90
2019-03-13T01:17:03.912Z,99.90
2019-03-13T01:19:30.265Z,99.90
2019-03-13T01:21:56.527Z,99.90
2019-03-13T01:24:22.783Z,99.90
2019-03-13T01:26:49.058Z,99.90
2019-03-13T01:29:15.338Z,99.90
2019-03-13T01:31:52.513Z,99.90
2019-03-13T01:34:26.475Z,99.90
2019-03-13T01:36:53.104Z,99.90
2019-03-13T01:39:19.593Z,99.90
2019-03-13T01:41:45.871Z,99.90
2019-03-13T01:44:12.149Z,99.90
2019-03-13T01:46:38.424Z,99.90
2019-03-13T01:49:04.683Z,99.90
2019-03-13T01:51:32.196Z,99.90
2019-03-13T01:53:58.821Z,99.90
2019-03-13T01:56:25.213Z,99.90
2019-03-13T01:58:51.558Z,99.90
2019-03-13T02:01:17.849Z,99.90
2019-03-13T02:03:44.456Z,99.90
2019-03-13T02:06:10.878Z,99.90
2019-03-13T02:08:37.233Z,99.90
2019-03-13T02:11:03.757Z,99.90
2019-03-13T02:13:30.107Z,99.90
2019-03-13T02:15:56.454Z,99.90
2019-03-13T02:18:22.979Z,99.90
2019-03-13T02:20:49.233Z,99.90
2019-03-13T02:23:15.497Z,99.90
2019-03-13T02:25:42.304Z,99.90
2019-03-13T02:28:08.769Z,99.90
2019-03-13T02:30:35.141Z,99.90
2019-03-13T02:33:01.388Z,99.90
2019-03-13T02:35:27.674Z,99.90
2019-03-13T02:37:53.918Z,99.90
2019-03-13T02:40:20.358Z,99.90
2019-03-13T02:42:46.956Z,99.90
2019-03-13T02:45:14.152Z,99.90
2019-03-13T02:47:40.634Z,99.90
2019-03-13T02:50:09.685Z,99.90
2019-03-13T02:52:36.041Z,99.90
2019-03-13T02:55:03.913Z,99.90
2019-03-13T02:57:30.231Z,99.90
2019-03-13T02:59:56.602Z,99.90
2019-03-13T03:02:24.795Z,99.90
2019-03-13T03:04:51.167Z,99.90
2019-03-13T03:07:17.804Z,99.90
2019-03-13T03:09:44.173Z,99.90
2019-03-13T03:12:10.785Z,99.90
2019-03-13T03:14:37.063Z,99.90
2019-03-13T03:17:03.671Z,99.90
2019-03-13T03:19:31.224Z,99.90
2019-03-13T03:21:57.570Z,99.90
2019-03-13T03:24:24.203Z,99.90
2019-03-13T03:26:50.611Z,99.90
2019-03-13T03:29:16.993Z,99.90
2019-03-13T03:31:43.402Z,99.90
2019-03-13T03:34:09.689Z,99.90
2019-03-13T03:36:36.320Z,99.90
2019-03-13T03:39:04.395Z,99.90
2019-03-13T03:41:32.456Z,99.90
2019-03-13T03:43:58.823Z,99.90
2019-03-13T03:46:25.231Z,99.90
2019-03-13T03:48:51.768Z,99.90
2019-03-13T03:51:19.400Z,99.90
2019-03-13T03:53:46.032Z,99.90
2019-03-13T03:59:36.071Z,99.90
2019-03-13T04:02:02.940Z,99.90
2019-03-13T04:04:29.280Z,99.90
2019-03-13T04:06:55.726Z,99.90
2019-03-13T04:10:05.141Z,99.90
2019-03-13T04:12:32.348Z,99.90
2019-03-13T04:14:58.707Z,99.90
2019-03-13T04:17:25.245Z,99.90
2019-03-13T04:19:52.900Z,99.90
2019-03-13T04:22:19.318Z,99.90
2019-03-13T04:24:45.576Z,99.90
2019-03-13T04:27:11.945Z,99.90
2019-03-13T04:29:38.310Z,99.90
2019-03-13T04:32:04.674Z,99.90
2019-03-13T04:34:31.360Z,99.90
2019-03-13T04:36:57.803Z,99.90
2019-03-13T04:39:24.413Z,99.90
2019-03-13T04:41:50.679Z,99.90
2019-03-13T04:44:16.965Z,99.90
2019-03-13T04:46:43.699Z,99.90
2019-03-13T04:49:10.283Z,99.90
2019-03-13T04:51:37.394Z,99.90
2019-03-13T04:54:04.093Z,99.90
2019-03-13T04:56:31.685Z,99.90
2019-03-13T04:58:58.921Z,99.90
2019-03-13T05:01:26.432Z,99.90
2019-03-13T05:03:53.725Z,99.90
2019-03-13T05:06:20.165Z,99.90
2019-03-13T05:08:49.375Z,99.90
2019-03-13T05:11:16.713Z,99.90
2019-03-13T05:13:43.496Z,99.90
2019-03-13T05:16:12.419Z,99.90
2019-03-13T05:18:42.725Z,99.90
2019-03-13T05:21:11.718Z,99.90
2019-03-13T05:23:38.516Z,99.90
2019-03-13T05:26:05.255Z,99.90
2019-03-13T05:28:31.532Z,99.90
2019-03-13T05:30:57.873Z,99.90
2019-03-13T05:33:24.240Z,99.90
2019-03-13T05:35:51.577Z,99.90
2019-03-13T05:38:17.945Z,99.90
2019-03-13T05:40:45.282Z,99.90
2019-03-13T05:43:11.627Z,99.90
2019-03-13T05:45:38.107Z,99.90
2019-03-13T05:48:04.513Z,99.90
2019-03-13T05:50:31.719Z,99.90
2019-03-13T05:52:58.165Z,99.90
2019-03-13T05:55:25.800Z,99.90
2019-03-13T05:57:52.066Z,99.90
2019-03-13T06:00:20.480Z,99.90
2019-03-13T06:02:48.004Z,99.90
2019-03-13T06:05:14.583Z,99.90
2019-03-13T06:07:41.174Z,99.90
2019-03-13T06:10:09.665Z,99.90
2019-03-13T06:12:36.257Z,99.90
2019-03-13T06:15:09.369Z,99.90
2019-03-13T06:17:35.701Z,99.90
2019-03-13T06:20:04.510Z,99.90
2019-03-13T06:22:30.852Z,99.90
2019-03-13T06:24:57.096Z,99.90
2019-03-13T06:27:23.365Z,99.90
2019-03-13T06:29:49.859Z,99.90
2019-03-13T06:32:16.262Z,99.90
2019-03-13T06:34:42.588Z,99.90
2019-03-13T06:37:08.944Z,99.90
2019-03-13T06:39:35.442Z,99.90
2019-03-13T06:42:01.691Z,99.90
2019-03-13T06:44:28.021Z,99.90
2019-03-13T06:46:54.523Z,99.90
2019-03-13T06:49:20.762Z,99.90
2019-03-13T06:51:47.369Z,99.90
2019-03-13T06:54:13.589Z,99.90
2019-03-13T06:56:39.829Z,99.90
2019-03-13T06:59:23.674Z,99.90
2019-03-13T07:02:07.000Z,99.90
2019-03-13T07:04:51.330Z,99.90
2019-03-13T07:07:19.456Z,99.90
2019-03-13T07:09:47.726Z,99.90
2019-03-13T07:12:32.518Z,99.90
2019-03-13T07:15:03.939Z,99.90
2019-03-13T07:17:32.150Z,99.90
2019-03-13T07:20:00.440Z,99.90
2019-03-13T07:22:34.506Z,99.90
2019-03-13T07:25:20.860Z,99.90
2019-03-13T07:28:03.737Z,99.90
2019-03-13T07:30:32.245Z,99.90
2019-03-13T07:33:03.536Z,99.90
2019-03-13T07:35:50.043Z,99.90
2019-03-13T07:38:21.101Z,99.90
2019-03-13T07:40:52.041Z,99.90
2019-03-13T07:43:38.248Z,99.90
2019-03-13T07:46:18.647Z,99.90
2019-03-13T07:48:52.734Z,99.90
2019-03-13T07:51:23.756Z,99.90
2019-03-13T07:54:10.174Z,99.90
2019-03-13T07:56:54.866Z,99.90
2019-03-13T07:59:41.179Z,99.90
2019-03-13T08:02:18.481Z,99.90
2019-03-13T08:04:49.402Z,99.90
2019-03-13T08:07:23.340Z,99.90
2019-03-13T08:09:51.857Z,99.90
2019-03-13T08:12:36.693Z,99.90
2019-03-13T08:15:11.158Z,99.90
2019-03-13T08:17:42.325Z,99.90
2019-03-13T08:20:19.704Z,99.90
2019-03-13T08:23:04.825Z,99.90
2019-03-13T08:25:33.210Z,93.70
2019-03-13T08:28:13.579Z,92.40
2019-03-13T08:30:43.109Z,92.00
2019-03-13T08:33:28.297Z,90.00
2019-03-13T08:36:08.005Z,90.00
2019-03-13T08:38:36.231Z,90.20
2019-03-13T08:41:07.489Z,84.50
2019-03-13T08:43:53.633Z,82.10
2019-03-13T08:46:25.173Z,83.50
2019-03-13T08:48:59.341Z,86.60
2019-03-13T08:51:39.648Z,87.60
2019-03-13T08:54:16.657Z,84.80
2019-03-13T08:56:56.729Z,90.40
2019-03-13T08:59:40.092Z,89.60
2019-03-13T09:02:08.604Z,93.50
2019-03-13T09:04:42.852Z,95.70
2019-03-13T09:07:25.885Z,96.90
2019-03-13T09:09:54.018Z,96.60
2019-03-13T09:12:22.457Z,98.40
2019-03-13T09:14:50.769Z,96.30
2019-03-13T09:17:18.902Z,95.10
2019-03-13T09:19:47.077Z,92.70
2019-03-13T09:22:18.644Z,94.70
2019-03-13T09:24:49.712Z,91.70
2019-03-13T09:27:34.549Z,92.80
2019-03-13T09:30:05.867Z,92.60
2019-03-13T09:32:46.277Z,93.00
2019-03-13T09:35:20.258Z,92.70
2019-03-13T09:37:57.698Z,90.40
2019-03-13T09:40:34.757Z,92.00
2019-03-13T09:43:02.902Z,92.50
2019-03-13T09:45:31.336Z,93.90
2019-03-13T09:47:59.660Z,95.90
2019-03-13T09:50:45.838Z,98.90
2019-03-13T09:53:16.785Z,92.90
2019-03-13T09:55:47.923Z,92.70
2019-03-13T09:58:16.189Z,96.80
2019-03-13T10:00:47.152Z,94.90
2019-03-13T10:03:27.537Z,95.60
2019-03-13T10:06:04.826Z,97.10
2019-03-13T10:08:47.812Z,93.40
2019-03-13T10:11:24.477Z,94.90
2019-03-13T10:14:11.093Z,96.10
2019-03-13T10:16:55.659Z,92.80
2019-03-13T10:19:32.818Z,87.50
2019-03-13T10:22:15.930Z,82.60
2019-03-13T10:24:53.379Z,82.10
2019-03-13T10:27:36.781Z,78.30
2019-03-13T10:30:28.339Z,77.40
2019-03-13T10:33:02.258Z,77.70
2019-03-13T10:35:45.640Z,78.00
2019-03-13T10:38:25.974Z,80.00
2019-03-13T10:40:54.148Z,80.00
2019-03-13T10:43:22.370Z,85.70
2019-03-13T10:45:50.617Z,87.40
2019-03-13T10:48:18.873Z,76.60
2019-03-13T10:50:50.058Z,78.30
2019-03-13T10:53:27.045Z,77.80
2019-03-13T10:56:11.562Z,78.50
2019-03-13T10:58:42.821Z,77.90
2019-03-13T11:01:14.357Z,72.10
2019-03-13T11:03:42.531Z,72.40
2019-03-13T11:06:19.830Z,69.70
2019-03-13T11:09:04.439Z,70.10
2019-03-13T11:11:34.824Z,67.50
2019-03-13T11:14:14.819Z,62.30
2019-03-13T11:16:54.223Z,63.00
2019-03-13T11:19:22.469Z,64.10
2019-03-13T11:21:53.705Z,66.30
2019-03-13T11:24:21.852Z,68.30
2019-03-13T11:26:52.978Z,69.40
2019-03-13T11:29:24.202Z,70.90
2019-03-13T11:31:55.183Z,72.60
2019-03-13T11:34:23.455Z,73.50
2019-03-13T11:36:51.623Z,74.60
2019-03-13T11:39:25.892Z,78.70
2019-03-13T11:42:10.976Z,77.90
2019-03-13T11:44:45.313Z,79.70
2019-03-13T11:47:16.296Z,74.70
2019-03-13T11:49:46.977Z,75.40
2019-03-13T11:52:21.265Z,74.00
2019-03-13T11:54:52.414Z,72.10
2019-03-13T11:57:23.313Z,74.90
2019-03-13T12:00:00.386Z,73.50
2019-03-13T12:02:45.645Z,76.20
2019-03-13T12:05:29.033Z,77.60
2019-03-13T12:08:06.206Z,78.30
2019-03-13T12:10:43.525Z,81.00
2019-03-13T12:13:11.681Z,78.30
2019-03-13T12:15:46.251Z,74.30
2019-03-13T12:18:15.799Z,77.20
2019-03-13T12:21:12.650Z,79.30
2019-03-13T12:23:59.133Z,73.40
2019-03-13T12:26:30.556Z,74.70
2019-03-13T12:29:15.411Z,73.70
2019-03-13T12:31:52.953Z,78.90
2019-03-13T12:34:33.401Z,75.00
2019-03-13T12:37:07.746Z,74.80
2019-03-13T12:39:35.994Z,77.70
2019-03-13T12:42:16.432Z,85.90
2019-03-13T12:44:47.682Z,93.00
2019-03-13T12:47:27.765Z,91.20
2019-03-13T12:49:58.910Z,85.00
2019-03-13T12:52:30.079Z,83.00
2019-03-13T12:54:58.319Z,82.50
2019-03-13T12:57:32.197Z,78.40
2019-03-13T13:00:12.431Z,81.10
2019-03-13T13:02:58.140Z,77.70
2019-03-13T13:05:26.685Z,72.70
2019-03-13T13:08:12.732Z,69.60
2019-03-13T13:10:53.719Z,69.10
2019-03-13T13:13:22.174Z,70.20
2019-03-13T13:15:50.325Z,70.50
2019-03-13T13:18:18.860Z,72.00
2019-03-13T13:20:59.852Z,73.80
2019-03-13T13:23:27.121Z,73.80
2019-03-13T13:25:53.637Z,74.80
2019-03-13T13:28:19.881Z,74.70
2019-03-13T13:30:46.233Z,77.60
2019-03-13T13:33:12.493Z,78.90
2019-03-13T13:35:38.883Z,80.90
2019-03-13T13:38:05.247Z,84.20
2019-03-13T13:40:31.494Z,83.60
2019-03-13T13:42:58.386Z,81.60
2019-03-13T13:45:33.083Z,75.00
2019-03-13T13:47:59.437Z,75.00
2019-03-13T13:50:25.653Z,75.10
2019-03-13T13:52:51.959Z,76.40
2019-03-13T13:55:18.576Z,75.50
2019-03-13T13:57:45.124Z,75.30
2019-03-13T14:00:11.651Z,75.70
2019-03-13T14:02:37.908Z,78.10
2019-03-13T14:05:04.861Z,73.90
2019-03-13T14:07:31.205Z,66.40
2019-03-13T14:09:57.729Z,63.20
2019-03-13T14:12:24.057Z,63.80
2019-03-13T14:14:50.402Z,64.90
2019-03-13T14:17:16.642Z,66.90
2019-03-13T14:19:43.167Z,68.30
2019-03-13T14:22:09.501Z,70.20
2019-03-13T14:24:36.010Z,73.70
2019-03-13T14:27:13.912Z,73.40
2019-03-13T14:29:30.787Z,74.50
2019-03-13T14:31:57.060Z,78.30
2019-03-13T14:34:24.098Z,80.30
2019-03-13T14:36:50.687Z,79.90
2019-03-13T14:39:17.218Z,81.70
2019-03-13T14:41:43.785Z,78.20
2019-03-13T14:44:10.073Z,79.10
2019-03-13T14:46:36.327Z,80.50
2019-03-13T14:49:02.775Z,81.70
2019-03-13T14:51:29.138Z,86.30
2019-03-13T14:53:55.702Z,90.80
2019-03-13T14:56:22.025Z,97.20
2019-03-13T14:58:48.299Z,99.90
2019-03-13T15:01:14.900Z,99.90
2019-03-13T15:03:41.546Z,99.90
2019-03-13T15:06:07.882Z,99.90
2019-03-13T15:08:34.134Z,99.90
2019-03-13T15:11:00.424Z,99.90
2019-03-13T15:13:27.061Z,99.90
2019-03-13T15:15:53.541Z,99.90
2019-03-13T15:18:20.060Z,99.90
2019-03-13T15:20:46.309Z,99.90
2019-03-13T15:23:12.561Z,99.90
2019-03-13T15:25:39.079Z,99.90
2019-03-13T15:28:05.658Z,99.90
2019-03-13T15:30:32.610Z,99.90
2019-03-13T15:32:59.172Z,99.90
2019-03-13T15:35:25.705Z,99.90
2019-03-13T15:37:52.080Z,99.90
2019-03-13T15:40:18.501Z,99.90
2019-03-13T15:42:45.397Z,99.90
2019-03-13T15:45:32.194Z,99.90
2019-03-13T15:47:58.671Z,99.90
2019-03-13T15:50:25.302Z,99.90
2019-03-13T15:52:51.649Z,99.90
2019-03-13T15:55:18.851Z,99.90
2019-03-13T15:57:45.578Z,99.90
2019-03-13T16:00:18.177Z,98.80
2019-03-13T16:02:44.805Z,99.90
2019-03-13T16:05:11.137Z,99.90
2019-03-13T16:07:37.411Z,99.90
2019-03-13T16:10:07.139Z,99.90
2019-03-13T16:12:33.455Z,99.90
2019-03-13T16:14:59.982Z,99.90
2019-03-13T16:17:26.232Z,99.90
2019-03-13T16:19:52.601Z,99.90
2019-03-13T16:22:20.724Z,99.90
2019-03-13T16:24:47.133Z,99.90
2019-03-13T16:27:14.773Z,99.90
2019-03-13T16:29:41.018Z,99.90
2019-03-13T16:32:07.371Z,99.90
2019-03-13T16:34:33.626Z,99.90
2019-03-13T16:36:59.993Z,99.90
2019-03-13T16:39:26.254Z,99.90
2019-03-13T16:41:52.858Z,99.90
2019-03-13T16:44:20.105Z,99.90
2019-03-13T16:46:46.609Z,99.90
2019-03-13T16:49:12.883Z,99.90
2019-03-13T16:51:39.229Z,99.90
2019-03-13T16:54:05.858Z,99.90
2019-03-13T16:56:32.197Z,99.90
2019-03-13T16:58:58.712Z,99.90
2019-03-13T17:01:25.053Z,99.90
2019-03-13T17:03:51.280Z,99.90
2019-03-13T17:06:17.532Z,99.90
2019-03-13T17:08:43.790Z,99.90
2019-03-13T17:11:10.417Z,99.90
2019-03-13T17:13:36.726Z,99.90
2019-03-13T17:16:03.225Z,99.90
2019-03-13T17:18:30.621Z,99.90
2019-03-13T17:20:57.142Z,99.90
2019-03-13T17:23:24.465Z,99.90
2019-03-13T17:25:50.730Z,99.90
2019-03-13T17:28:20.243Z,99.90
2019-03-13T17:30:47.866Z,99.90
2019-03-13T17:33:14.569Z,99.90
2019-03-13T17:35:41.341Z,99.90
2019-03-13T17:38:07.591Z,99.90
2019-03-13T17:40:33.838Z,99.90
2019-03-13T17:43:00.099Z,99.90
2019-03-13T17:45:26.822Z,99.90
2019-03-13T17:47:53.428Z,99.90
2019-03-13T17:50:22.754Z,99.90
2019-03-13T17:52:49.137Z,99.90
2019-03-13T17:55:17.352Z,99.90
2019-03-13T17:57:43.706Z,99.90
2019-03-13T18:00:19.077Z,99.90
2019-03-13T18:02:45.428Z,99.90
2019-03-13T18:05:12.403Z,99.90
2019-03-13T18:07:39.020Z,99.90
2019-03-13T18:10:12.161Z,99.90
2019-03-13T18:12:39.216Z,99.90
2019-03-13T18:15:08.419Z,99.90
2019-03-13T18:17:34.753Z,99.90
2019-03-13T18:20:01.270Z,99.90
2019-03-13T18:22:27.530Z,99.90
2019-03-13T18:24:53.769Z,99.90
2019-03-13T18:27:20.280Z,99.90
2019-03-13T18:29:46.638Z,99.90
2019-03-13T18:32:12.932Z,99.90
2019-03-13T18:34:39.191Z,99.90
2019-03-13T18:37:05.432Z,99.90
2019-03-13T18:39:31.961Z,99.90
2019-03-13T18:41:58.190Z,99.90
2019-03-13T18:44:24.435Z,99.90
2019-03-13T18:46:50.819Z,99.90
2019-03-13T18:49:17.446Z,99.90
2019-03-13T18:51:43.766Z,99.90
2019-03-13T18:54:10.095Z,99.90
2019-03-13T18:56:38.573Z,99.90
2019-03-13T18:59:05.227Z,99.90
2019-03-13T19:01:31.582Z,99.90
2019-03-13T19:03:58.202Z,99.90
2019-03-13T19:06:24.799Z,99.90
2019-03-13T19:08:51.348Z,99.90
2019-03-13T19:11:17.785Z,99.90
2019-03-13T19:13:44.437Z,99.90
2019-03-13T19:16:11.155Z,99.90
2019-03-13T19:18:37.526Z,99.90
2019-03-13T19:21:03.789Z,99.90
2019-03-13T19:23:30.185Z,99.90
2019-03-13T19:25:56.562Z,99.90
2019-03-13T19:28:24.171Z,99.90
2019-03-13T19:30:50.585Z,99.90
2019-03-13T19:33:16.938Z,99.90
2019-03-13T19:35:43.381Z,99.90
2019-03-13T19:38:11.062Z,99.90
2019-03-13T19:40:37.474Z,99.90
2019-03-13T19:43:03.978Z,99.90
2019-03-13T19:45:33.719Z,99.90
2019-03-13T19:48:01.590Z,99.90
2019-03-13T19:50:28.481Z,99.90
2019-03-13T19:52:55.075Z,99.90
2019-03-13T19:55:21.642Z,99.90
2019-03-13T19:57:48.011Z,99.90
2019-03-13T20:00:20.676Z,99.90
2019-03-13T20:02:59.539Z,99.90
2019-03-13T20:05:15.849Z,99.90
2019-03-13T20:07:42.279Z,99.90
2019-03-13T20:10:18.534Z,99.90
2019-03-13T20:12:45.008Z,99.90
2019-03-13T20:15:16.678Z,99.90
2019-03-13T20:17:43.970Z,99.90
2019-03-13T20:20:18.342Z,99.90
2019-03-13T20:22:45.151Z,99.90
2019-03-13T20:25:17.660Z,99.90
2019-03-13T20:27:43.939Z,99.90
2019-03-13T20:30:19.258Z,99.90
2019-03-13T20:32:45.770Z,99.90
2019-03-13T20:35:12.474Z,99.90
2019-03-13T20:37:38.814Z,99.90
2019-03-13T20:40:08.563Z,99.90
2019-03-13T20:42:35.664Z,99.90
2019-03-13T20:45:03.760Z,99.90
2019-03-13T20:47:31.698Z,99.90
2019-03-13T20:49:57.931Z,99.90
2019-03-13T20:52:24.328Z,99.90
2019-03-13T20:54:50.701Z,99.90
2019-03-13T20:57:18.156Z,99.90
2019-03-13T20:59:44.508Z,99.90
2019-03-13T21:02:11.270Z,99.90
2019-03-13T21:04:37.788Z,99.90
2019-03-13T21:07:04.117Z,99.90
2019-03-13T21:09:30.371Z,99.90
2019-03-13T21:11:56.740Z,99.90
2019-03-13T21:14:23.115Z,99.90
2019-03-13T21:16:50.721Z,99.90
2019-03-13T21:19:17.030Z,99.90
2019-03-13T21:21:43.347Z,99.90
2019-03-13T21:24:09.848Z,99.90
2019-03-13T21:26:36.338Z,99.90
2019-03-13T21:29:02.598Z,99.90
2019-03-13T21:31:29.216Z,99.90
2019-03-13T21:33:55.478Z,99.90
2019-03-13T21:36:21.720Z,99.90
2019-03-13T21:38:48.067Z,99.90
2019-03-13T21:41:14.559Z,99.90
2019-03-13T21:43:40.848Z,99.90
2019-03-13T21:46:07.085Z,99.90
2019-03-13T21:48:33.321Z,99.90
2019-03-13T21:50:59.571Z,99.90
2019-03-13T21:53:25.886Z,99.90
2019-03-13T21:55:52.903Z,99.90
2019-03-13T21:58:19.433Z,99.90
2019-03-13T22:00:45.785Z,99.90
2019-03-13T22:03:12.015Z,99.90
2019-03-13T22:05:38.381Z,99.90
2019-03-13T22:08:04.714Z,99.90
2019-03-13T22:10:31.007Z,99.90
2019-03-13T22:12:57.331Z,99.90
2019-03-13T22:15:24.077Z,99.90
2019-03-13T22:17:50.533Z,99.90
2019-03-13T22:20:18.042Z,99.90
2019-03-13T22:22:44.591Z,99.90
2019-03-13T22:25:17.888Z,99.90
2019-03-13T22:27:44.503Z,99.90
2019-03-13T22:30:17.143Z,99.90
2019-03-13T22:32:43.486Z,99.90
2019-03-13T22:35:09.725Z,99.90
2019-03-13T22:37:36.098Z,99.90
2019-03-13T22:40:04.922Z,99.90
2019-03-13T22:42:31.289Z,99.90
2019-03-13T22:44:57.682Z,99.90
2019-03-13T22:47:24.165Z,99.90
2019-03-13T22:49:51.495Z,99.90
2019-03-13T22:52:17.744Z,99.90
2019-03-13T22:54:43.992Z,99.90
2019-03-13T22:57:10.337Z,99.90
2019-03-13T22:59:36.673Z,99.90
2019-03-13T23:02:03.795Z,99.90
2019-03-13T23:04:30.573Z,99.90
2019-03-13T23:06:57.112Z,99.90
2019-03-13T23:09:24.105Z,99.90
2019-03-13T23:11:50.441Z,99.90
2019-03-13T23:14:17.000Z,99.90
2019-03-13T23:16:43.226Z,99.90
2019-03-13T23:19:09.879Z,99.90
2019-03-13T23:21:36.120Z,99.90
2019-03-13T23:24:02.375Z,99.90
2019-03-13T23:26:28.895Z,99.90
2019-03-13T23:28:55.231Z,99.90
2019-03-13T23:34:52.563Z,99.90
2019-03-13T23:37:19.095Z,99.90
2019-03-13T23:39:45.522Z,99.90
2019-03-13T23:42:11.886Z,99.90
2019-03-13T23:44:38.362Z,99.90
2019-03-13T23:47:04.927Z,99.90
2019-03-13T23:49:31.544Z,99.90
2019-03-13T23:51:58.157Z,99.90
2019-03-13T23:54:24.427Z,99.90
2019-03-13T23:56:50.787Z,99.90
2019-03-13T23:59:17.609Z,99.90
